Time,TemperatureF,DewpointF,PressureIn,WindDirection,WindDirectionDegrees,WindSpeedMPH,WindSpeedGustMPH,Humidity,HourlyPrecipIn,Conditions,Clouds,dailyrainin,SolarRadiationWatts/m^2,SoftwareType,DateUTC
2015-02-01 00:04:00,32.1,26.0,30.23,SW,233,0.0,0.0,78,0.00,,,0.00,0,Wunderground v.1.15,2015-02-01 05:04:00,
2015-02-01 00:10:00,32.0,25.9,30.23,SW,233,0.0,0.0,78,0.00,,,0.00,0,Wunderground v.1.15,2015-02-01 05:10:00,
2015-02-01 00:16:00,32.0,25.9,30.23,SW,233,0.0,0.0,78,0.00,,,0.00,0,Wunderground v.1.15,2015-02-01 05:16:00,
2015-02-01 00:22:00,32.0,25.9,30.23,SW,233,0.0,0.0,78,0.00,,,0.00,0,Wunderground v.1.15,2015-02-01 05:22:00,
2015-02-01 00:28:00,31.9,25.8,30.23,SW,233,0.0,0.0,78,0.00,,,0.00,0,Wunderground v.1.15,2015-02-01 05:28:00,
2015-02-01 00:34:00,31.9,25.8,30.23,SW,233,0.0,0.0,78,0.00,,,0.00,0,Wunderground v.1.15,2015-02-01 05:34:00,
2015-02-01 00:40:00,31.9,25.8,30.23,SW,233,0.0,0.0,78,0.00,,,0.00,0,Wunderground v.1.15,2015-02-01 05:40:00,
2015-02-01 00:46:00,32.0,25.9,30.23,SW,233,0.0,0.0,78,0.00,,,0.00,0,Wunderground v.1.15,2015-02-01 05:46:00,
2015-02-01 00:52:00,32.1,26.0,30.23,SW,233,0.0,0.0,78,0.00,,,0.00,0,Wunderground v.1.15,2015-02-01 05:52:00,
2015-02-01 00:58:00,32.1,26.3,30.23,SW,234,0.0,0.0,79,0.00,,,0.00,0,Wunderground v.1.15,2015-02-01 05:58:00,
2015-02-01 01:04:00,32.1,26.3,30.23,SW,234,0.0,0.0,79,0.00,,,0.00,0,Wunderground v.1.15,2015-02-01 06:04:00,
2015-02-01 01:10:00,32.1,26.3,30.23,SW,234,0.0,0.0,79,0.00,,,0.00,0,Wunderground v.1.15,2015-02-01 06:10:00,
2015-02-01 01:22:00,32.1,26.3,30.23,NNW,331,0.0,1.0,79,0.00,,,0.00,0,Wunderground v.1.15,2015-02-01 06:22:00,
2015-02-01 01:28:00,32.1,26.3,30.23,NNW,331,1.0,1.0,79,0.00,,,0.00,0,Wunderground v.1.15,2015-02-01 06:28:00,
2015-02-01 01:34:00,32.1,26.3,30.23,NNW,331,0.0,1.0,79,0.00,,,0.00,0,Wunderground v.1.15,2015-02-01 06:34:00,
2015-02-01 01:40:00,32.0,26.5,30.23,NNW,331,0.0,0.0,80,0.00,,,0.00,0,Wunderground v.1.15,2015-02-01 06:40:00,
2015-02-01 01:46:00,32.0,26.5,30.23,NE,37,1.0,1.0,80,0.00,,,0.00,0,Wunderground v.1.15,2015-02-01 06:46:00,
2015-02-01 01:52:00,32.0,26.8,30.23,North,360,1.0,4.0,81,0.00,,,0.00,0,Wunderground v.1.15,2015-02-01 06:52:00,
2015-02-01 01:58:00,31.9,27.0,30.23,North,10,1.0,2.0,82,0.00,,,0.00,0,Wunderground v.1.15,2015-02-01 06:58:00,
2015-02-01 02:04:00,31.7,27.4,30.23,North,10,0.0,2.0,84,0.00,,,0.00,0,Wunderground v.1.15,2015-02-01 07:04:00,
2015-02-01 02:10:00,31.6,27.6,30.24,North,10,0.0,0.0,85,0.00,,,0.00,0,Wunderground v.1.15,2015-02-01 07:10:00,
2015-02-01 02:16:00,31.4,27.7,30.24,North,10,0.0,0.0,86,0.00,,,0.00,0,Wunderground v.1.15,2015-02-01 07:16:00,
2015-02-01 02:22:00,31.3,27.6,30.24,North,10,0.0,0.0,86,0.00,,,0.00,0,Wunderground v.1.15,2015-02-01 07:22:00,
2015-02-01 02:28:00,31.2,27.8,30.24,North,10,0.0,5.0,87,0.00,,,0.00,0,Wunderground v.1.15,2015-02-01 07:28:00,
2015-02-01 02:34:00,31.0,27.6,30.24,North,10,0.0,5.0,87,0.00,,,0.00,0,Wunderground v.1.15,2015-02-01 07:34:00,
2015-02-01 02:40:00,30.9,27.8,30.24,North,10,0.0,5.0,88,0.00,,,0.00,0,Wunderground v.1.15,2015-02-01 07:40:00,
2015-02-01 02:46:00,30.8,27.7,30.24,North,10,0.0,5.0,88,0.00,,,0.00,0,Wunderground v.1.15,2015-02-01 07:46:00,
2015-02-01 02:52:00,30.6,27.5,30.24,North,10,0.0,5.0,88,0.00,,,0.00,0,Wunderground v.1.15,2015-02-01 07:52:00,
2015-02-01 02:58:00,30.6,27.5,30.23,North,10,0.0,0.0,88,0.00,,,0.00,0,Wunderground v.1.15,2015-02-01 07:58:00,
2015-02-01 03:04:00,30.5,27.6,30.23,North,10,0.0,0.0,89,0.00,,,0.00,0,Wunderground v.1.15,2015-02-01 08:04:00,
2015-02-01 03:10:00,30.5,27.6,30.23,North,10,0.0,0.0,89,0.00,,,0.00,0,Wunderground v.1.15,2015-02-01 08:10:00,
2015-02-01 03:16:00,30.6,28.0,30.23,North,10,0.0,0.0,90,0.00,,,0.00,0,Wunderground v.1.15,2015-02-01 08:16:00,
2015-02-01 03:22:00,30.6,28.0,30.23,North,10,0.0,0.0,90,0.00,,,0.00,0,Wunderground v.1.15,2015-02-01 08:22:00,
2015-02-01 03:28:00,30.6,28.0,30.23,North,10,0.0,1.0,90,0.00,,,0.00,0,Wunderground v.1.15,2015-02-01 08:28:00,
2015-02-01 03:34:00,30.5,27.9,30.23,North,11,1.0,3.0,90,0.00,,,0.00,0,Wunderground v.1.15,2015-02-01 08:34:00,
2015-02-01 03:40:00,30.2,27.6,30.23,North,5,1.0,3.0,90,0.00,,,0.00,0,Wunderground v.1.15,2015-02-01 08:40:00,
2015-02-01 03:46:00,29.9,27.6,30.22,NNE,19,1.0,3.0,91,0.00,,,0.00,0,Wunderground v.1.15,2015-02-01 08:46:00,
2015-02-01 03:52:00,29.7,27.4,30.22,NNE,19,1.0,3.0,91,0.00,,,0.00,0,Wunderground v.1.15,2015-02-01 08:52:00,
2015-02-01 03:58:00,29.5,27.2,30.22,NE,51,2.0,2.0,91,0.00,,,0.00,0,Wunderground v.1.15,2015-02-01 08:58:00,
2015-02-01 04:04:00,29.2,26.9,30.22,NE,34,3.0,7.0,91,0.00,,,0.00,0,Wunderground v.1.15,2015-02-01 09:04:00,
2015-02-01 04:10:00,29.0,26.7,30.22,NNE,31,3.0,3.0,91,0.00,,,0.00,0,Wunderground v.1.15,2015-02-01 09:10:00,
2015-02-01 04:16:00,28.8,26.5,30.22,NNE,26,2.0,2.0,91,0.00,,,0.00,0,Wunderground v.1.15,2015-02-01 09:16:00,
2015-02-01 04:22:00,28.5,26.2,30.22,ENE,64,3.0,4.0,91,0.00,,,0.00,0,Wunderground v.1.15,2015-02-01 09:22:00,
2015-02-01 04:28:00,28.3,26.3,30.22,NNE,24,3.0,3.0,92,0.00,,,0.00,0,Wunderground v.1.15,2015-02-01 09:28:00,
2015-02-01 04:34:00,28.3,26.3,30.21,NNE,22,2.0,5.0,92,0.00,,,0.00,0,Wunderground v.1.15,2015-02-01 09:34:00,
2015-02-01 04:40:00,28.1,26.1,30.22,NE,35,2.0,5.0,92,0.00,,,0.00,0,Wunderground v.1.15,2015-02-01 09:40:00,
2015-02-01 04:46:00,28.0,26.0,30.22,East,80,2.0,5.0,92,0.00,,,0.00,0,Wunderground v.1.15,2015-02-01 09:46:00,
2015-02-01 04:52:00,28.0,26.0,30.22,NE,44,2.0,5.0,92,0.00,,,0.00,0,Wunderground v.1.15,2015-02-01 09:52:00,
2015-02-01 04:58:00,27.8,25.8,30.22,East,80,3.0,8.0,92,0.00,,,0.00,0,Wunderground v.1.15,2015-02-01 09:58:00,
2015-02-01 05:04:00,27.5,25.5,30.22,North,11,5.0,8.0,92,0.00,,,0.00,0,Wunderground v.1.15,2015-02-01 10:04:00,
2015-02-01 05:10:00,27.3,25.3,30.22,East,88,4.0,5.0,92,0.00,,,0.00,0,Wunderground v.1.15,2015-02-01 10:10:00,
2015-02-01 05:18:00,27.1,25.1,30.22,North,355,3.0,5.0,92,0.00,,,0.00,0,Wunderground v.1.15,2015-02-01 10:18:00,
2015-02-01 05:24:00,27.0,25.0,30.21,ENE,57,4.0,5.0,92,0.00,,,0.00,0,Wunderground v.1.15,2015-02-01 10:24:00,
2015-02-01 05:30:00,26.8,24.8,30.22,NE,44,2.0,8.0,92,0.00,,,0.00,0,Wunderground v.1.15,2015-02-01 10:30:00,
2015-02-01 05:36:00,26.7,24.7,30.21,ENE,76,1.0,8.0,92,0.00,,,0.00,0,Wunderground v.1.15,2015-02-01 10:36:00,
2015-02-01 05:42:00,26.6,24.6,30.22,NE,49,1.0,8.0,92,0.00,,,0.00,0,Wunderground v.1.15,2015-02-01 10:42:00,
2015-02-01 05:48:00,26.5,24.5,30.22,ENE,61,3.0,3.0,92,0.00,,,0.00,0,Wunderground v.1.15,2015-02-01 10:48:00,
2015-02-01 05:54:00,26.3,24.3,30.22,ENE,69,4.0,8.0,92,0.00,,,0.00,0,Wunderground v.1.15,2015-02-01 10:54:00,
2015-02-01 06:00:00,26.2,24.2,30.22,ENE,68,3.0,3.0,92,0.00,,,0.00,0,Wunderground v.1.15,2015-02-01 11:00:00,
2015-02-01 06:06:00,26.1,24.1,30.21,NE,55,2.0,4.0,92,0.00,,,0.00,0,Wunderground v.1.15,2015-02-01 11:06:00,
2015-02-01 06:12:00,26.1,24.1,30.21,ENE,63,1.0,2.0,92,0.00,,,0.00,0,Wunderground v.1.15,2015-02-01 11:12:00,
2015-02-01 06:18:00,26.0,24.0,30.21,ENE,63,1.0,1.0,92,0.00,,,0.00,0,Wunderground v.1.15,2015-02-01 11:18:00,
2015-02-01 06:24:00,26.0,24.0,30.20,NE,46,1.0,2.0,92,0.00,,,0.00,0,Wunderground v.1.15,2015-02-01 11:24:00,
2015-02-01 06:30:00,26.0,24.0,30.20,NE,41,2.0,11.0,92,0.00,,,0.00,0,Wunderground v.1.15,2015-02-01 11:30:00,
2015-02-01 06:36:00,26.0,24.0,30.21,NNE,30,1.0,11.0,92,0.00,,,0.00,0,Wunderground v.1.15,2015-02-01 11:36:00,
2015-02-01 06:42:00,25.9,23.9,30.21,NE,40,2.0,11.0,92,0.00,,,0.00,0,Wunderground v.1.15,2015-02-01 11:42:00,
2015-02-01 06:48:00,25.9,23.9,30.21,NE,55,2.0,11.0,92,0.00,,,0.00,0,Wunderground v.1.15,2015-02-01 11:48:00,
2015-02-01 06:54:00,25.8,23.8,30.21,NE,34,2.0,11.0,92,0.00,,,0.00,0,Wunderground v.1.15,2015-02-01 11:54:00,
2015-02-01 07:00:00,25.8,23.8,30.21,ENE,60,2.0,3.0,92,0.00,,,0.00,0,Wunderground v.1.15,2015-02-01 12:00:00,
2015-02-01 07:06:00,25.8,23.8,30.21,ENE,76,2.0,2.0,92,0.00,,,0.00,0,Wunderground v.1.15,2015-02-01 12:06:00,
2015-02-01 07:12:00,25.7,23.7,30.21,ESE,103,2.0,5.0,92,0.00,,,0.00,0,Wunderground v.1.15,2015-02-01 12:12:00,
2015-02-01 07:18:00,25.6,23.6,30.21,ESE,102,4.0,8.0,92,0.00,,,0.00,0,Wunderground v.1.15,2015-02-01 12:18:00,
2015-02-01 07:24:00,25.3,23.3,30.22,ENE,62,5.0,8.0,92,0.00,,,0.00,0,Wunderground v.1.15,2015-02-01 12:24:00,
2015-02-01 07:30:00,25.0,23.0,30.22,NNE,32,4.0,7.0,92,0.00,,,0.00,0,Wunderground v.1.15,2015-02-01 12:30:00,
2015-02-01 07:36:00,24.6,22.6,30.22,ENE,64,5.0,5.0,92,0.00,,,0.00,0,Wunderground v.1.15,2015-02-01 12:36:00,
2015-02-01 07:42:00,24.4,22.4,30.21,NNE,13,4.0,7.0,92,0.00,,,0.00,0,Wunderground v.1.15,2015-02-01 12:42:00,
2015-02-01 07:48:00,24.2,22.2,30.21,North,11,3.0,7.0,92,0.00,,,0.00,0,Wunderground v.1.15,2015-02-01 12:48:00,
2015-02-01 07:54:00,24.0,22.0,30.21,NNE,30,3.0,7.0,92,0.00,,,0.00,0,Wunderground v.1.15,2015-02-01 12:54:00,
2015-02-01 08:00:00,23.6,21.6,30.20,NE,55,5.0,11.0,92,0.00,,,0.00,5,Wunderground v.1.15,2015-02-01 13:00:00,
2015-02-01 08:06:00,23.4,21.4,30.20,ENE,67,6.0,6.0,92,0.00,,,0.00,7,Wunderground v.1.15,2015-02-01 13:06:00,
2015-02-01 08:12:00,23.3,21.3,30.20,NE,55,5.0,7.0,92,0.00,,,0.00,9,Wunderground v.1.15,2015-02-01 13:12:00,
2015-02-01 08:18:00,23.3,21.3,30.20,East,100,4.0,7.0,92,0.00,,,0.00,11,Wunderground v.1.15,2015-02-01 13:18:00,
2015-02-01 08:24:00,23.2,21.2,30.20,ENE,61,5.0,7.0,92,0.00,,,0.00,11,Wunderground v.1.15,2015-02-01 13:24:00,
2015-02-01 08:30:00,23.1,21.1,30.20,NNE,29,5.0,11.0,92,0.00,,,0.00,14,Wunderground v.1.15,2015-02-01 13:30:00,
2015-02-01 08:36:00,23.1,21.1,30.20,East,92,4.0,4.0,92,0.00,,,0.00,19,Wunderground v.1.15,2015-02-01 13:36:00,
2015-02-01 08:42:00,23.1,21.1,30.20,East,88,4.0,11.0,92,0.00,,,0.00,18,Wunderground v.1.15,2015-02-01 13:42:00,
2015-02-01 08:48:00,23.1,21.1,30.19,ENE,70,4.0,11.0,92,0.00,,,0.00,21,Wunderground v.1.15,2015-02-01 13:48:00,
2015-02-01 08:54:00,23.1,21.1,30.19,East,101,5.0,11.0,92,0.00,,,0.00,30,Wunderground v.1.15,2015-02-01 13:54:00,
2015-02-01 09:00:00,23.1,21.1,30.20,NE,51,5.0,8.0,92,0.00,,,0.00,32,Wunderground v.1.15,2015-02-01 14:00:00,
2015-02-01 09:06:00,23.1,21.1,30.20,ENE,64,5.0,10.0,92,0.00,,,0.00,30,Wunderground v.1.15,2015-02-01 14:06:00,
2015-02-01 09:12:00,23.1,21.1,30.19,NE,51,5.0,10.0,92,0.00,,,0.00,33,Wunderground v.1.15,2015-02-01 14:12:00,
2015-02-01 09:18:00,23.1,21.1,30.18,East,92,5.0,9.0,92,0.00,,,0.00,39,Wunderground v.1.15,2015-02-01 14:18:00,
2015-02-01 09:24:00,23.1,21.1,30.17,ENE,69,6.0,10.0,92,0.00,,,0.00,53,Wunderground v.1.15,2015-02-01 14:24:00,
2015-02-01 09:30:00,23.1,21.1,30.17,ENE,63,6.0,14.0,92,0.00,,,0.00,56,Wunderground v.1.15,2015-02-01 14:30:00,
2015-02-01 09:36:00,23.1,21.1,30.16,ESE,108,6.0,6.0,92,0.00,,,0.00,72,Wunderground v.1.15,2015-02-01 14:36:00,
2015-02-01 09:42:00,23.2,21.2,30.16,NE,51,6.0,14.0,92,0.00,,,0.00,83,Wunderground v.1.15,2015-02-01 14:42:00,
2015-02-01 09:48:00,23.1,21.1,30.17,East,86,6.0,8.0,92,0.00,,,0.00,95,Wunderground v.1.15,2015-02-01 14:48:00,
2015-02-01 09:54:00,23.1,21.1,30.17,East,81,6.0,14.0,92,0.00,,,0.00,90,Wunderground v.1.15,2015-02-01 14:54:00,
2015-02-01 10:00:00,23.2,21.2,30.17,ESE,106,5.0,9.0,92,0.00,,,0.00,98,Wunderground v.1.15,2015-02-01 15:00:00,
2015-02-01 10:06:00,23.2,21.2,30.16,ENE,78,6.0,6.0,92,0.00,,,0.00,107,Wunderground v.1.15,2015-02-01 15:06:00,
2015-02-01 10:12:00,23.3,21.3,30.16,NE,40,6.0,12.0,92,0.00,,,0.00,91,Wunderground v.1.15,2015-02-01 15:12:00,
2015-02-01 10:18:00,23.3,21.3,30.16,ESE,119,6.0,11.0,92,0.00,,,0.00,95,Wunderground v.1.15,2015-02-01 15:18:00,
2015-02-01 10:24:00,23.3,21.3,30.16,East,94,6.0,11.0,92,0.00,,,0.00,114,Wunderground v.1.15,2015-02-01 15:24:00,
2015-02-01 10:30:00,23.3,21.3,30.16,NE,46,6.0,14.0,92,0.00,,,0.00,90,Wunderground v.1.15,2015-02-01 15:30:00,
2015-02-01 10:36:00,23.3,21.3,30.15,ENE,67,6.0,14.0,92,0.00,,,0.00,111,Wunderground v.1.15,2015-02-01 15:36:00,
2015-02-01 10:42:00,23.2,21.2,30.14,East,93,7.0,14.0,92,0.00,,,0.00,135,Wunderground v.1.15,2015-02-01 15:42:00,
2015-02-01 10:48:00,23.2,21.2,30.14,East,90,7.0,14.0,92,0.00,,,0.00,132,Wunderground v.1.15,2015-02-01 15:48:00,
2015-02-01 10:54:00,23.2,21.2,30.13,NNE,26,7.0,14.0,92,0.00,,,0.00,123,Wunderground v.1.15,2015-02-01 15:54:00,
2015-02-01 11:00:00,23.3,21.3,30.13,East,90,7.0,8.0,92,0.00,,,0.00,130,Wunderground v.1.15,2015-02-01 16:00:00,
2015-02-01 11:06:00,23.3,21.3,30.13,East,80,7.0,7.0,92,0.00,,,0.00,121,Wunderground v.1.15,2015-02-01 16:06:00,
2015-02-01 11:12:00,23.3,21.3,30.12,NE,51,6.0,8.0,92,0.00,,,0.00,107,Wunderground v.1.15,2015-02-01 16:12:00,
2015-02-01 11:18:00,23.4,21.7,30.11,East,82,5.0,5.0,93,0.00,,,0.00,105,Wunderground v.1.15,2015-02-01 16:18:00,
2015-02-01 11:24:00,23.4,21.7,30.11,NE,45,5.0,8.0,93,0.00,,,0.00,116,Wunderground v.1.15,2015-02-01 16:24:00,
2015-02-01 11:30:00,23.4,21.7,30.10,North,360,6.0,17.0,93,0.00,,,0.00,111,Wunderground v.1.15,2015-02-01 16:30:00,
2015-02-01 11:36:00,23.2,21.5,30.10,East,87,7.0,17.0,93,0.00,,,0.00,121,Wunderground v.1.15,2015-02-01 16:36:00,
2015-02-01 11:42:00,23.1,21.4,30.10,NE,44,8.0,17.0,93,0.00,,,0.00,123,Wunderground v.1.15,2015-02-01 16:42:00,
2015-02-01 11:48:00,23.1,21.4,30.10,ENE,74,6.0,17.0,93,0.00,,,0.00,141,Wunderground v.1.15,2015-02-01 16:48:00,
2015-02-01 11:54:00,23.1,21.4,30.10,NE,44,7.0,17.0,93,0.00,,,0.00,139,Wunderground v.1.15,2015-02-01 16:54:00,
2015-02-01 12:00:00,23.0,21.0,30.10,NNE,21,7.0,12.0,92,0.00,,,0.00,132,Wunderground v.1.15,2015-02-01 17:00:00,
2015-02-01 12:06:00,22.8,20.8,30.09,East,99,8.0,8.0,92,0.00,,,0.00,125,Wunderground v.1.15,2015-02-01 17:06:00,
2015-02-01 12:12:00,22.7,20.7,30.09,East,98,9.0,13.0,92,0.00,,,0.00,137,Wunderground v.1.15,2015-02-01 17:12:00,
2015-02-01 12:18:00,22.7,20.7,30.08,East,85,9.0,9.0,92,0.00,,,0.00,149,Wunderground v.1.15,2015-02-01 17:18:00,
2015-02-01 12:24:00,22.9,21.2,30.07,ESE,103,6.0,9.0,93,0.00,,,0.00,135,Wunderground v.1.15,2015-02-01 17:24:00,
2015-02-01 12:30:00,23.0,21.3,30.07,NE,48,6.0,17.0,93,0.00,,,0.00,120,Wunderground v.1.15,2015-02-01 17:30:00,
2015-02-01 12:36:00,23.0,21.3,30.07,ENE,71,6.0,17.0,93,0.00,,,0.00,109,Wunderground v.1.15,2015-02-01 17:36:00,
2015-02-01 12:42:00,22.9,20.9,30.06,NE,51,6.0,17.0,92,0.00,,,0.00,104,Wunderground v.1.15,2015-02-01 17:42:00,
2015-02-01 12:48:00,22.9,21.2,30.06,East,80,5.0,17.0,93,0.00,,,0.00,107,Wunderground v.1.15,2015-02-01 17:48:00,
2015-02-01 12:54:00,22.8,21.1,30.05,ENE,76,5.0,17.0,93,0.00,,,0.00,105,Wunderground v.1.15,2015-02-01 17:54:00,
2015-02-01 13:00:00,22.6,20.6,30.05,NE,38,6.0,10.0,92,0.00,,,0.00,98,Wunderground v.1.15,2015-02-01 18:00:00,
2015-02-01 13:04:00,22.5,20.5,30.05,East,100,7.0,11.0,92,0.00,,,0.00,97,Wunderground v.1.15,2015-02-01 18:04:00,
2015-02-01 13:10:00,22.5,20.8,30.04,East,88,7.0,9.0,93,0.00,,,0.00,104,Wunderground v.1.15,2015-02-01 18:10:00,
2015-02-01 13:16:00,22.6,20.6,30.03,East,87,6.0,6.0,92,0.00,,,0.00,107,Wunderground v.1.15,2015-02-01 18:16:00,
2015-02-01 13:22:00,22.7,21.0,30.02,East,80,5.0,6.0,93,0.00,,,0.00,120,Wunderground v.1.15,2015-02-01 18:22:00,
2015-02-01 13:28:00,22.8,21.1,30.02,NE,56,5.0,6.0,93,0.00,,,0.00,123,Wunderground v.1.15,2015-02-01 18:28:00,
2015-02-01 13:34:00,22.7,21.0,30.01,ENE,65,7.0,18.0,93,0.00,,,0.00,120,Wunderground v.1.15,2015-02-01 18:34:00,
2015-02-01 13:40:00,22.7,21.0,30.00,NE,37,7.0,18.0,93,0.00,,,0.00,105,Wunderground v.1.15,2015-02-01 18:40:00,
2015-02-01 13:46:00,22.6,20.9,29.99,NE,40,6.0,18.0,93,0.00,,,0.00,109,Wunderground v.1.15,2015-02-01 18:46:00,
2015-02-01 13:52:00,22.5,20.5,29.98,NNE,25,7.0,18.0,92,0.00,,,0.00,98,Wunderground v.1.15,2015-02-01 18:52:00,
2015-02-01 13:58:00,22.5,20.5,29.98,ENE,71,8.0,10.0,92,0.00,,,0.00,105,Wunderground v.1.15,2015-02-01 18:58:00,
2015-02-01 14:04:00,22.4,20.4,29.98,East,90,7.0,10.0,92,0.00,,,0.00,97,Wunderground v.1.15,2015-02-01 19:04:00,
2015-02-01 14:10:00,22.4,20.4,29.98,East,79,8.0,10.0,92,0.00,,,0.00,77,Wunderground v.1.15,2015-02-01 19:10:00,
2015-02-01 14:16:00,22.4,20.4,29.98,ENE,67,8.0,8.0,92,0.00,,,0.00,69,Wunderground v.1.15,2015-02-01 19:16:00,
2015-02-01 14:22:00,22.3,20.3,29.98,ENE,68,8.0,8.0,92,0.00,,,0.00,69,Wunderground v.1.15,2015-02-01 19:22:00,
2015-02-01 14:28:00,22.2,20.5,29.97,NE,41,9.0,15.0,93,0.00,,,0.00,58,Wunderground v.1.15,2015-02-01 19:28:00,
2015-02-01 14:34:00,22.2,20.5,29.96,ENE,70,8.0,15.0,93,0.00,,,0.00,44,Wunderground v.1.15,2015-02-01 19:34:00,
2015-02-01 14:40:00,22.2,20.5,29.96,East,90,8.0,15.0,93,0.00,,,0.00,46,Wunderground v.1.15,2015-02-01 19:40:00,
2015-02-01 14:46:00,22.2,20.5,29.95,NE,51,8.0,15.0,93,0.00,,,0.00,47,Wunderground v.1.15,2015-02-01 19:46:00,
2015-02-01 14:52:00,22.3,20.6,29.95,East,84,7.0,15.0,93,0.00,,,0.00,58,Wunderground v.1.15,2015-02-01 19:52:00,
2015-02-01 14:58:00,22.2,20.5,29.94,East,82,8.0,8.0,93,0.00,,,0.00,65,Wunderground v.1.15,2015-02-01 19:58:00,
2015-02-01 15:04:00,22.2,20.5,29.93,North,5,9.0,9.0,93,0.00,,,0.00,51,Wunderground v.1.15,2015-02-01 20:04:00,
2015-02-01 15:10:00,22.2,20.5,29.93,ENE,63,8.0,8.0,93,0.00,,,0.00,46,Wunderground v.1.15,2015-02-01 20:10:00,
2015-02-01 15:16:00,22.3,20.6,29.92,NNE,32,8.0,8.0,93,0.00,,,0.00,62,Wunderground v.1.15,2015-02-01 20:16:00,
2015-02-01 15:22:00,22.3,20.6,29.92,East,82,8.0,13.0,93,0.00,,,0.00,53,Wunderground v.1.15,2015-02-01 20:22:00,
2015-02-01 15:28:00,22.2,20.5,29.91,ENE,78,9.0,19.0,93,0.00,,,0.00,76,Wunderground v.1.15,2015-02-01 20:28:00,
2015-02-01 15:34:00,22.1,20.4,29.91,ENE,76,8.0,19.0,93,0.00,,,0.00,74,Wunderground v.1.15,2015-02-01 20:34:00,
2015-02-01 15:40:00,22.1,20.4,29.90,ENE,73,8.0,19.0,93,0.00,,,0.00,69,Wunderground v.1.15,2015-02-01 20:40:00,
2015-02-01 15:46:00,22.1,20.4,29.90,ENE,69,9.0,9.0,93,0.00,,,0.00,49,Wunderground v.1.15,2015-02-01 20:46:00,
2015-02-01 15:52:00,22.1,20.4,29.90,ENE,78,7.0,19.0,93,0.00,,,0.00,46,Wunderground v.1.15,2015-02-01 20:52:00,
2015-02-01 15:58:00,22.1,20.4,29.90,East,79,6.0,10.0,93,0.00,,,0.00,42,Wunderground v.1.15,2015-02-01 20:58:00,
2015-02-01 16:04:00,22.0,20.3,29.89,ENE,63,8.0,10.0,93,0.00,,,0.00,39,Wunderground v.1.15,2015-02-01 21:04:00,
2015-02-01 16:10:00,21.8,20.1,29.89,East,83,9.0,10.0,93,0.00,,,0.00,40,Wunderground v.1.15,2015-02-01 21:10:00,
2015-02-01 16:16:00,21.7,20.0,29.90,ENE,76,7.0,7.0,93,0.00,,,0.00,32,Wunderground v.1.15,2015-02-01 21:16:00,
2015-02-01 16:22:00,21.7,20.0,29.89,East,93,7.0,8.0,93,0.00,,,0.00,26,Wunderground v.1.15,2015-02-01 21:22:00,
2015-02-01 16:28:00,21.7,20.0,29.88,ENE,58,8.0,20.0,93,0.00,,,0.00,25,Wunderground v.1.15,2015-02-01 21:28:00,
2015-02-01 16:34:00,21.7,20.0,29.88,ENE,73,7.0,20.0,93,0.00,,,0.00,25,Wunderground v.1.15,2015-02-01 21:34:00,
2015-02-01 16:40:00,21.6,19.9,29.87,NNE,16,7.0,20.0,93,0.00,,,0.00,25,Wunderground v.1.15,2015-02-01 21:40:00,
2015-02-01 16:46:00,21.5,19.8,29.88,NE,36,8.0,8.0,93,0.00,,,0.00,25,Wunderground v.1.15,2015-02-01 21:46:00,
2015-02-01 16:52:00,21.5,19.8,29.88,ENE,61,7.0,20.0,93,0.00,,,0.00,19,Wunderground v.1.15,2015-02-01 21:52:00,
2015-02-01 16:58:00,21.4,19.7,29.87,NE,51,6.0,6.0,93,0.00,,,0.00,23,Wunderground v.1.15,2015-02-01 21:58:00,
2015-02-01 17:04:00,21.4,19.7,29.87,ENE,63,7.0,10.0,93,0.00,,,0.00,16,Wunderground v.1.15,2015-02-01 22:04:00,
2015-02-01 17:10:00,21.3,19.6,29.87,ENE,65,8.0,11.0,93,0.00,,,0.00,12,Wunderground v.1.15,2015-02-01 22:10:00,
2015-02-01 17:16:00,21.3,19.6,29.86,ENE,72,8.0,8.0,93,0.00,,,0.00,11,Wunderground v.1.15,2015-02-01 22:16:00,
2015-02-01 17:22:00,21.2,19.5,29.86,NNE,15,6.0,8.0,93,0.00,,,0.00,7,Wunderground v.1.15,2015-02-01 22:22:00,
2015-02-01 17:28:00,21.1,19.4,29.86,NNE,14,5.0,19.0,93,0.00,,,0.00,5,Wunderground v.1.15,2015-02-01 22:28:00,
2015-02-01 17:36:00,21.0,19.3,29.86,NE,44,6.0,19.0,93,0.00,,,0.00,0,Wunderground v.1.15,2015-02-01 22:36:00,
2015-02-01 17:42:00,20.9,19.2,29.86,ENE,67,7.0,19.0,93,0.00,,,0.00,0,Wunderground v.1.15,2015-02-01 22:42:00,
2015-02-01 17:48:00,20.9,19.2,29.85,ENE,60,6.0,6.0,93,0.00,,,0.00,0,Wunderground v.1.15,2015-02-01 22:48:00,
2015-02-01 17:54:00,20.8,19.1,29.85,East,85,6.0,19.0,93,0.00,,,0.00,0,Wunderground v.1.15,2015-02-01 22:54:00,
2015-02-01 18:00:00,20.8,19.1,29.85,East,98,6.0,14.0,93,0.00,,,0.00,0,Wunderground v.1.15,2015-02-01 23:00:00,
2015-02-01 18:06:00,20.7,19.0,29.85,NE,49,7.0,7.0,93,0.00,,,0.00,0,Wunderground v.1.15,2015-02-01 23:06:00,
2015-02-01 18:12:00,20.7,19.0,29.85,NNE,13,7.0,8.0,93,0.00,,,0.00,0,Wunderground v.1.15,2015-02-01 23:12:00,
2015-02-01 18:18:00,20.6,18.9,29.85,ENE,67,7.0,8.0,93,0.00,,,0.00,0,Wunderground v.1.15,2015-02-01 23:18:00,
2015-02-01 18:24:00,20.6,18.9,29.84,NE,51,6.0,8.0,93,0.00,,,0.00,0,Wunderground v.1.15,2015-02-01 23:24:00,
2015-02-01 18:30:00,20.5,18.8,29.83,East,100,6.0,18.0,93,0.00,,,0.00,0,Wunderground v.1.15,2015-02-01 23:30:00,
2015-02-01 18:36:00,20.5,18.8,29.83,ENE,64,8.0,18.0,93,0.00,,,0.00,0,Wunderground v.1.15,2015-02-01 23:36:00,
2015-02-01 18:42:00,20.4,18.7,29.82,NE,46,8.0,18.0,93,0.00,,,0.00,0,Wunderground v.1.15,2015-02-01 23:42:00,
2015-02-01 18:48:00,20.4,18.7,29.82,NE,40,8.0,18.0,93,0.00,,,0.00,0,Wunderground v.1.15,2015-02-01 23:48:00,
2015-02-01 18:54:00,20.3,18.6,29.82,ENE,78,8.0,18.0,93,0.00,,,0.00,0,Wunderground v.1.15,2015-02-01 23:54:00,
2015-02-01 19:00:00,20.3,18.6,29.81,ENE,65,9.0,14.0,93,0.00,,,0.00,0,Wunderground v.1.15,2015-02-02 00:00:00,
2015-02-01 19:06:00,20.2,18.5,29.81,ENE,59,7.0,7.0,93,0.00,,,0.00,0,Wunderground v.1.15,2015-02-02 00:06:00,
2015-02-01 19:14:00,20.2,18.5,29.81,ENE,59,8.0,15.0,93,0.00,,,0.00,0,Wunderground v.1.15,2015-02-02 00:14:00,
2015-02-01 19:20:00,20.2,18.5,29.81,East,80,7.0,8.0,93,0.00,,,0.00,0,Wunderground v.1.15,2015-02-02 00:20:00,
2015-02-01 19:26:00,20.2,18.5,29.81,NNE,25,7.0,7.0,93,0.00,,,0.00,0,Wunderground v.1.15,2015-02-02 00:26:00,
2015-02-01 19:32:00,20.2,18.5,29.81,NNE,13,8.0,18.0,93,0.00,,,0.00,0,Wunderground v.1.15,2015-02-02 00:32:00,
2015-02-01 19:38:00,20.1,18.4,29.80,NE,49,8.0,10.0,93,0.00,,,0.00,0,Wunderground v.1.15,2015-02-02 00:38:00,
2015-02-01 19:44:00,20.0,18.3,29.79,ENE,65,7.0,18.0,93,0.00,,,0.00,0,Wunderground v.1.15,2015-02-02 00:44:00,
2015-02-01 19:50:00,19.9,18.2,29.79,NE,47,7.0,18.0,93,0.00,,,0.00,0,Wunderground v.1.15,2015-02-02 00:50:00,
2015-02-01 19:56:00,19.8,18.1,29.79,NE,34,7.0,7.0,93,0.00,,,0.00,0,Wunderground v.1.15,2015-02-02 00:56:00,
2015-02-01 20:02:00,19.8,18.1,29.79,ENE,70,8.0,8.0,93,0.00,,,0.00,0,Wunderground v.1.15,2015-02-02 01:02:00,
2015-02-01 20:08:00,19.8,18.1,29.78,ENE,60,7.0,13.0,93,0.00,,,0.00,0,Wunderground v.1.15,2015-02-02 01:08:00,